createdAt,value
2022-11-16T00:00:12.164Z,995.60
2022-11-16T00:01:12.181Z,995.63
2022-11-16T00:02:12.272Z,995.60
2022-11-16T00:03:12.179Z,995.59
2022-11-16T00:04:12.154Z,995.57
2022-11-16T00:05:12.191Z,995.53
2022-11-16T00:06:12.166Z,995.53
2022-11-16T00:07:12.220Z,995.49
2022-11-16T00:08:12.149Z,995.52
2022-11-16T00:09:12.147Z,995.51
2022-11-16T00:10:12.154Z,995.47
2022-11-16T00:11:12.156Z,995.50
2022-11-16T00:12:12.135Z,995.53
2022-11-16T00:13:12.133Z,995.49
2022-11-16T00:14:12.158Z,995.48
2022-11-16T00:15:12.138Z,995.47
2022-11-16T00:16:12.142Z,995.46
2022-11-16T00:17:12.122Z,995.48
2022-11-16T00:18:12.118Z,995.49
2022-11-16T00:19:12.136Z,995.50
2022-11-16T00:20:12.125Z,995.51
2022-11-16T00:21:12.143Z,995.50
2022-11-16T00:22:12.115Z,995.51
2022-11-16T00:23:12.108Z,995.46
2022-11-16T00:24:12.103Z,995.43
2022-11-16T00:25:12.119Z,995.48
2022-11-16T00:26:12.117Z,995.44
2022-11-16T00:27:12.089Z,995.44
2022-11-16T00:28:12.104Z,995.43
2022-11-16T00:29:12.108Z,995.44
2022-11-16T00:30:12.106Z,995.45
2022-11-16T00:31:12.086Z,995.44
2022-11-16T00:32:12.082Z,995.46
2022-11-16T00:33:12.081Z,995.49
2022-11-16T00:34:12.083Z,995.47
2022-11-16T00:35:12.072Z,995.51
2022-11-16T00:36:12.078Z,995.49
2022-11-16T00:37:12.079Z,995.52
2022-11-16T00:38:12.088Z,995.49
2022-11-16T00:39:12.076Z,995.50
2022-11-16T00:40:12.068Z,995.48
2022-11-16T00:41:12.071Z,995.47
2022-11-16T00:42:12.062Z,995.47
2022-11-16T00:43:12.064Z,995.45
2022-11-16T00:44:12.074Z,995.46
2022-11-16T00:45:12.038Z,995.43
2022-11-16T00:46:12.040Z,995.44
2022-11-16T00:47:12.051Z,995.37
2022-11-16T00:48:12.041Z,995.42
2022-11-16T00:49:12.056Z,995.34
2022-11-16T00:50:12.024Z,995.34
2022-11-16T00:51:12.032Z,995.36
2022-11-16T00:52:12.018Z,995.35
2022-11-16T00:53:12.047Z,995.31
2022-11-16T00:54:12.020Z,995.34
2022-11-16T00:55:12.023Z,995.32
2022-11-16T00:56:12.014Z,995.34
2022-11-16T00:57:12.008Z,995.34
2022-11-16T00:58:12.028Z,995.31
2022-11-16T00:59:12.007Z,995.34
2022-11-16T01:00:12.024Z,995.36
2022-11-16T01:01:12.065Z,995.35
2022-11-16T01:02:11.990Z,995.34
2022-11-16T01:03:12.003Z,995.36
2022-11-16T01:04:11.993Z,995.36
2022-11-16T01:05:11.985Z,995.35
2022-11-16T01:06:11.981Z,995.35
2022-11-16T01:07:12.077Z,995.34
2022-11-16T01:08:11.974Z,995.32
2022-11-16T01:09:12.009Z,995.32
2022-11-16T01:10:11.985Z,995.32
2022-11-16T01:11:11.964Z,995.34
2022-11-16T01:12:11.965Z,995.33
2022-11-16T01:13:11.976Z,995.32
2022-11-16T01:14:11.963Z,995.31
2022-11-16T01:15:11.970Z,995.30
2022-11-16T01:16:11.964Z,995.30
2022-11-16T01:17:11.953Z,995.32
2022-11-16T01:18:11.968Z,995.26
2022-11-16T01:19:11.978Z,995.30
2022-11-16T01:20:11.954Z,995.30
2022-11-16T01:21:11.958Z,995.29
2022-11-16T01:22:11.931Z,995.29
2022-11-16T01:23:11.955Z,995.30
2022-11-16T01:24:11.942Z,995.31
2022-11-16T01:25:11.947Z,995.32
2022-11-16T01:26:11.923Z,995.26
2022-11-16T01:27:11.921Z,995.29
2022-11-16T01:28:11.920Z,995.29
2022-11-16T01:29:11.920Z,995.34
2022-11-16T01:30:11.927Z,995.31
2022-11-16T01:31:11.914Z,995.33
2022-11-16T01:32:11.935Z,995.29
2022-11-16T01:33:11.919Z,995.25
2022-11-16T01:34:11.904Z,995.24
2022-11-16T01:35:11.921Z,995.31
2022-11-16T01:36:11.917Z,995.32
2022-11-16T01:37:11.893Z,995.25
2022-11-16T01:38:11.891Z,995.24
2022-11-16T01:39:11.901Z,995.27
2022-11-16T01:40:11.895Z,995.32
2022-11-16T01:41:11.918Z,995.28
2022-11-16T01:42:11.895Z,995.25
2022-11-16T01:43:11.872Z,995.30
2022-11-16T01:44:11.886Z,995.29
2022-11-16T01:45:11.879Z,995.32
2022-11-16T01:46:11.901Z,995.25
2022-11-16T01:47:11.881Z,995.28
2022-11-16T01:48:11.929Z,995.30
2022-11-16T01:49:11.880Z,995.27
2022-11-16T01:50:11.876Z,995.31
2022-11-16T01:51:11.851Z,995.32
2022-11-16T01:52:11.869Z,995.30
2022-11-16T01:53:11.848Z,995.26
2022-11-16T01:54:11.854Z,995.34
2022-11-16T01:55:11.855Z,995.38
2022-11-16T01:56:11.862Z,995.43
2022-11-16T01:57:11.852Z,995.46
2022-11-16T01:58:11.843Z,995.48
2022-11-16T01:59:11.832Z,995.47
2022-11-16T02:00:11.827Z,995.50
2022-11-16T02:01:11.941Z,995.52
2022-11-16T02:02:11.842Z,995.51
2022-11-16T02:03:11.824Z,995.52
2022-11-16T02:04:11.826Z,995.45
2022-11-16T02:05:11.811Z,995.42
2022-11-16T02:06:11.821Z,995.35
2022-11-16T02:07:11.915Z,995.30
2022-11-16T02:08:11.821Z,995.31
2022-11-16T02:09:11.824Z,995.31
2022-11-16T02:10:11.832Z,995.26
2022-11-16T02:11:11.808Z,995.29
2022-11-16T02:12:11.804Z,995.24
2022-11-16T02:13:11.811Z,995.22
2022-11-16T02:14:11.797Z,995.22
2022-11-16T02:15:11.807Z,995.17
2022-11-16T02:16:11.791Z,995.17
2022-11-16T02:17:11.777Z,995.17
2022-11-16T02:18:11.776Z,995.16
2022-11-16T02:19:11.773Z,995.21
2022-11-16T02:20:11.797Z,995.18
2022-11-16T02:21:11.773Z,995.19
2022-11-16T02:22:11.777Z,995.22
2022-11-16T02:23:11.773Z,995.20
2022-11-16T02:24:11.759Z,995.15
2022-11-16T02:25:11.755Z,995.17
2022-11-16T02:26:11.771Z,995.17
2022-11-16T02:27:11.759Z,995.14
2022-11-16T02:28:11.757Z,995.10
2022-11-16T02:29:11.762Z,995.09
2022-11-16T02:30:11.742Z,995.06
2022-11-16T02:31:11.755Z,994.96
2022-11-16T02:32:11.751Z,994.95
2022-11-16T02:33:11.759Z,994.90
2022-11-16T02:34:11.724Z,994.89
2022-11-16T02:35:11.740Z,994.89
2022-11-16T02:36:11.739Z,994.86
2022-11-16T02:37:11.723Z,994.83
2022-11-16T02:38:11.732Z,994.81
2022-11-16T02:39:11.722Z,994.77
2022-11-16T02:40:11.724Z,994.74
2022-11-16T02:41:11.714Z,994.76
2022-11-16T02:42:11.728Z,994.73
2022-11-16T02:43:11.707Z,994.69
2022-11-16T02:44:11.710Z,994.69
2022-11-16T02:45:11.733Z,994.70
2022-11-16T02:46:11.690Z,994.72
2022-11-16T02:47:11.697Z,994.73
2022-11-16T02:48:11.703Z,994.69
2022-11-16T02:49:11.691Z,994.68
2022-11-16T02:50:11.680Z,994.69
2022-11-16T02:51:11.690Z,994.69
2022-11-16T02:52:11.680Z,994.72
2022-11-16T02:53:11.683Z,994.68
2022-11-16T02:54:11.689Z,994.65
2022-11-16T02:55:11.669Z,994.56
2022-11-16T02:56:11.664Z,994.61
2022-11-16T02:57:11.674Z,994.60
2022-11-16T02:58:11.670Z,994.58
2022-11-16T02:59:16.514Z,994.53
2022-11-16T03:00:11.656Z,994.53
2022-11-16T03:01:11.770Z,994.60
2022-11-16T03:02:11.645Z,994.59
2022-11-16T03:03:11.652Z,994.59
2022-11-16T03:04:11.654Z,994.62
2022-11-16T03:05:11.654Z,994.66
2022-11-16T03:06:11.639Z,994.66
2022-11-16T03:07:11.665Z,994.64
2022-11-16T03:08:11.638Z,994.63
2022-11-16T03:09:11.625Z,994.66
2022-11-16T03:10:11.640Z,994.62
2022-11-16T03:11:11.625Z,994.67
2022-11-16T03:12:11.631Z,994.66
2022-11-16T03:13:11.617Z,994.70
2022-11-16T03:14:11.615Z,994.70
2022-11-16T03:15:11.630Z,994.68
2022-11-16T03:16:11.625Z,994.70
2022-11-16T03:17:11.641Z,994.69
2022-11-16T03:18:11.608Z,994.71
2022-11-16T03:19:11.595Z,994.73
2022-11-16T03:20:11.608Z,994.74
2022-11-16T03:21:11.594Z,994.80
2022-11-16T03:22:11.596Z,994.91
2022-11-16T03:23:11.596Z,994.90
2022-11-16T03:24:11.585Z,994.95
2022-11-16T03:25:11.598Z,994.89
2022-11-16T03:26:11.588Z,994.88
2022-11-16T03:27:11.576Z,994.85
2022-11-16T03:28:11.587Z,994.81
2022-11-16T03:29:11.578Z,994.78
2022-11-16T03:30:11.567Z,994.78
2022-11-16T03:31:11.580Z,994.74
2022-11-16T03:32:11.580Z,994.76
2022-11-16T03:33:11.587Z,994.83
2022-11-16T03:34:11.562Z,994.90
2022-11-16T03:35:11.563Z,994.88
2022-11-16T03:36:11.559Z,994.90
2022-11-16T03:37:11.558Z,994.92
2022-11-16T03:38:11.558Z,994.96
2022-11-16T03:39:11.536Z,994.98
2022-11-16T03:40:11.547Z,994.95
2022-11-16T03:41:11.545Z,994.95
2022-11-16T03:42:11.543Z,994.90
2022-11-16T03:43:11.543Z,994.90
2022-11-16T03:44:11.550Z,994.89
2022-11-16T03:45:11.541Z,994.87
2022-11-16T03:46:11.519Z,994.92
2022-11-16T03:47:11.519Z,994.93
2022-11-16T03:48:11.529Z,994.93
2022-11-16T03:49:11.545Z,994.97
2022-11-16T03:50:11.506Z,994.96
2022-11-16T03:51:11.508Z,994.93
2022-11-16T03:52:11.513Z,994.93
2022-11-16T03:53:11.495Z,994.91
2022-11-16T03:54:11.495Z,994.98
2022-11-16T03:55:11.488Z,994.96
2022-11-16T03:56:11.501Z,995.00
2022-11-16T03:57:11.503Z,994.99
2022-11-16T03:58:11.481Z,995.02
2022-11-16T03:59:11.500Z,995.01
2022-11-16T04:00:11.707Z,995.05
2022-11-16T04:01:11.570Z,995.06
2022-11-16T04:02:11.830Z,995.13
2022-11-16T04:03:11.467Z,995.18
2022-11-16T04:04:11.467Z,995.14
2022-11-16T04:05:11.478Z,995.17
2022-11-16T04:06:14.896Z,995.17
2022-11-16T04:07:11.531Z,995.21
2022-11-16T04:08:11.460Z,995.21
2022-11-16T04:09:12.460Z,995.20
2022-11-16T04:10:11.449Z,995.20
2022-11-16T04:11:11.454Z,995.21
2022-11-16T04:12:11.455Z,995.25
2022-11-16T04:13:11.458Z,995.26
2022-11-16T04:14:11.435Z,995.19
2022-11-16T04:15:11.454Z,995.30
2022-11-16T04:16:11.434Z,995.27
2022-11-16T04:17:11.426Z,995.29
2022-11-16T04:18:11.439Z,995.29
2022-11-16T04:19:11.454Z,995.33
2022-11-16T04:20:11.430Z,995.24
2022-11-16T04:21:11.450Z,995.30
2022-11-16T04:22:11.424Z,995.32
2022-11-16T04:23:11.417Z,995.38
2022-11-16T04:24:11.428Z,995.43
2022-11-16T04:25:11.412Z,995.50
2022-11-16T04:26:11.412Z,995.54
2022-11-16T04:27:11.399Z,995.53
2022-11-16T04:28:11.398Z,995.57
2022-11-16T04:29:11.409Z,995.62
2022-11-16T04:30:11.397Z,995.64
2022-11-16T04:31:11.396Z,995.59
2022-11-16T04:32:11.395Z,995.48
2022-11-16T04:33:11.392Z,995.44
2022-11-16T04:34:11.394Z,995.35
2022-11-16T04:35:11.391Z,995.33
2022-11-16T04:36:12.205Z,995.32
2022-11-16T04:37:11.386Z,995.35
2022-11-16T04:38:11.372Z,995.37
2022-11-16T04:39:11.365Z,995.48
2022-11-16T04:40:11.379Z,995.47
2022-11-16T04:41:11.363Z,995.44
2022-11-16T04:42:11.374Z,995.44
2022-11-16T04:43:11.361Z,995.46
2022-11-16T04:44:11.368Z,995.39
2022-11-16T04:45:11.358Z,995.45
2022-11-16T04:46:11.375Z,995.39
2022-11-16T04:47:11.337Z,995.45
2022-11-16T04:48:11.353Z,995.46
2022-11-16T04:49:11.345Z,995.46
2022-11-16T04:50:11.339Z,995.47
2022-11-16T04:51:11.349Z,995.50
2022-11-16T04:52:11.326Z,995.46
2022-11-16T04:53:11.340Z,995.51
2022-11-16T04:54:11.345Z,995.51
2022-11-16T04:55:11.333Z,995.51
2022-11-16T04:56:11.312Z,995.53
2022-11-16T04:57:11.315Z,995.54
2022-11-16T04:58:11.325Z,995.56
2022-11-16T04:59:11.322Z,995.55
2022-11-16T05:00:11.314Z,995.56
2022-11-16T05:01:11.356Z,995.51
2022-11-16T05:02:11.299Z,995.54
2022-11-16T05:03:11.293Z,995.50
2022-11-16T05:04:11.309Z,995.55
2022-11-16T05:05:11.305Z,995.52
2022-11-16T05:06:11.287Z,995.48
2022-11-16T05:07:11.455Z,995.49
2022-11-16T05:08:11.283Z,995.50
2022-11-16T05:09:11.317Z,995.51
2022-11-16T05:10:11.296Z,995.51
2022-11-16T05:11:11.283Z,995.53
2022-11-16T05:12:11.267Z,995.53
2022-11-16T05:13:11.288Z,995.50
2022-11-16T05:14:11.276Z,995.53
2022-11-16T05:15:11.272Z,995.55
2022-11-16T05:16:11.286Z,995.54
2022-11-16T05:17:11.251Z,995.54
2022-11-16T05:18:11.259Z,995.53
2022-11-16T05:19:11.253Z,995.51
2022-11-16T05:20:11.249Z,995.54
2022-11-16T05:21:11.241Z,995.55
2022-11-16T05:22:11.240Z,995.52
2022-11-16T05:23:11.238Z,995.57
2022-11-16T05:24:11.246Z,995.54
2022-11-16T05:25:11.262Z,995.56
2022-11-16T05:26:11.244Z,995.48
2022-11-16T05:27:11.239Z,995.54
2022-11-16T05:28:11.223Z,995.57
2022-11-16T05:29:11.222Z,995.58
2022-11-16T05:30:11.216Z,995.61
2022-11-16T05:31:11.224Z,995.68
2022-11-16T05:32:11.232Z,995.65
2022-11-16T05:33:11.223Z,995.64
2022-11-16T05:34:11.203Z,995.66
2022-11-16T05:35:11.213Z,995.68
2022-11-16T05:36:11.200Z,995.66
2022-11-16T05:37:11.199Z,995.67
2022-11-16T05:38:11.210Z,995.67
2022-11-16T05:39:11.186Z,995.71
2022-11-16T05:40:11.184Z,995.71
2022-11-16T05:41:11.206Z,995.71
2022-11-16T05:42:11.195Z,995.77
2022-11-16T05:43:11.176Z,995.79
2022-11-16T05:44:11.202Z,995.74
2022-11-16T05:45:11.183Z,995.73
2022-11-16T05:46:11.176Z,995.72
2022-11-16T05:47:11.170Z,995.71
2022-11-16T05:48:11.178Z,995.73
2022-11-16T05:49:11.175Z,995.75
2022-11-16T05:50:11.175Z,995.68
2022-11-16T05:51:11.169Z,995.71
2022-11-16T05:52:11.163Z,995.69
2022-11-16T05:53:11.152Z,995.71
2022-11-16T05:54:11.168Z,995.70
2022-11-16T05:55:11.143Z,995.69
2022-11-16T05:56:11.170Z,995.74
2022-11-16T05:57:11.157Z,995.74
2022-11-16T05:58:11.157Z,995.74
2022-11-16T05:59:16.207Z,995.73
2022-11-16T06:00:11.145Z,995.73
2022-11-16T06:01:11.143Z,995.69
2022-11-16T06:02:11.143Z,995.75
2022-11-16T06:03:11.183Z,995.75
2022-11-16T06:04:11.132Z,995.77
2022-11-16T06:05:11.144Z,995.81
2022-11-16T06:06:11.131Z,995.85
2022-11-16T06:07:11.217Z,995.81
2022-11-16T06:08:11.118Z,995.84
2022-11-16T06:09:11.114Z,995.84
2022-11-16T06:10:11.105Z,995.86
2022-11-16T06:11:11.117Z,995.83
2022-11-16T06:12:11.107Z,995.84
2022-11-16T06:13:11.110Z,995.86
2022-11-16T06:14:11.102Z,995.88
2022-11-16T06:15:11.108Z,995.97
2022-11-16T06:16:11.828Z,996.01
2022-11-16T06:17:11.095Z,996.03
2022-11-16T06:18:11.097Z,996.03
2022-11-16T06:19:11.085Z,996.06
2022-11-16T06:20:11.086Z,996.13
2022-11-16T06:21:11.082Z,996.13
2022-11-16T06:22:11.079Z,996.16
2022-11-16T06:23:11.076Z,996.12
2022-11-16T06:24:11.880Z,996.12
2022-11-16T06:25:11.074Z,996.15
2022-11-16T06:26:11.057Z,996.12
2022-11-16T06:27:11.052Z,996.19
2022-11-16T06:28:11.067Z,996.16
2022-11-16T06:29:11.061Z,996.20
2022-11-16T06:30:11.047Z,996.17
2022-11-16T06:31:11.039Z,996.17
2022-11-16T06:32:11.287Z,996.16
2022-11-16T06:33:11.052Z,996.20
2022-11-16T06:34:11.049Z,996.21
2022-11-16T06:35:11.049Z,996.24
2022-11-16T06:36:11.050Z,996.30
2022-11-16T06:37:11.039Z,996.30
2022-11-16T06:38:11.039Z,996.31
2022-11-16T06:39:11.035Z,996.39
2022-11-16T06:40:11.033Z,996.35
2022-11-16T06:41:11.035Z,996.37
2022-11-16T06:42:11.032Z,996.37
2022-11-16T06:43:11.004Z,996.37
2022-11-16T06:44:11.022Z,996.40
2022-11-16T06:45:11.064Z,996.35
2022-11-16T06:46:11.013Z,996.35
2022-11-16T06:47:10.996Z,996.28
2022-11-16T06:48:11.136Z,996.26
2022-11-16T06:49:11.002Z,996.24
2022-11-16T06:50:11.018Z,996.22
2022-11-16T06:51:10.994Z,996.24
2022-11-16T06:52:10.991Z,996.22
2022-11-16T06:53:52.387Z,996.22
2022-11-16T06:54:52.389Z,996.29
2022-11-16T06:55:52.391Z,996.25
2022-11-16T06:56:52.400Z,996.25
2022-11-16T06:57:52.401Z,996.29
2022-11-16T06:58:53.689Z,996.31
2022-11-16T06:59:52.389Z,996.33
2022-11-16T07:00:52.390Z,996.35
2022-11-16T07:01:52.429Z,996.37
2022-11-16T07:02:52.385Z,996.34
2022-11-16T07:03:52.392Z,996.37
2022-11-16T07:04:52.386Z,996.43
2022-11-16T07:05:52.363Z,996.39
2022-11-16T07:06:52.474Z,996.42
2022-11-16T07:07:52.376Z,996.45
2022-11-16T07:08:52.360Z,996.45
2022-11-16T07:09:52.370Z,996.48
2022-11-16T07:10:52.356Z,996.48
2022-11-16T07:11:52.363Z,996.48
2022-11-16T07:12:52.370Z,996.49
2022-11-16T07:13:52.359Z,996.55
2022-11-16T07:14:52.361Z,996.56
2022-11-16T07:15:52.347Z,996.58
2022-11-16T07:16:57.965Z,996.57
2022-11-16T07:17:52.336Z,996.65
2022-11-16T07:18:52.347Z,996.64
2022-11-16T07:19:52.464Z,996.68
2022-11-16T07:20:52.349Z,996.66
2022-11-16T07:21:52.347Z,996.75
2022-11-16T07:22:52.330Z,996.76
2022-11-16T07:23:52.323Z,996.79
2022-11-16T07:24:52.339Z,996.75
2022-11-16T07:25:52.338Z,996.77
2022-11-16T07:26:52.337Z,996.76
2022-11-16T07:27:52.330Z,996.77
2022-11-16T07:28:52.334Z,996.77
2022-11-16T07:29:52.316Z,996.79
2022-11-16T07:30:52.313Z,996.81
2022-11-16T07:31:52.320Z,996.81
2022-11-16T07:32:52.319Z,996.85
2022-11-16T07:33:52.319Z,996.89
2022-11-16T07:34:52.336Z,996.88
2022-11-16T07:35:52.586Z,996.93
2022-11-16T07:36:52.300Z,996.96
2022-11-16T07:37:52.299Z,996.96
2022-11-16T07:38:52.297Z,996.99
2022-11-16T07:39:52.295Z,997.00
2022-11-16T07:40:52.307Z,997.00
2022-11-16T07:41:52.306Z,996.98
2022-11-16T07:42:52.285Z,996.99
2022-11-16T07:43:53.407Z,997.00
2022-11-16T07:44:52.282Z,997.00
2022-11-16T07:45:52.308Z,996.99
2022-11-16T07:46:52.297Z,996.99
2022-11-16T07:47:52.289Z,997.01
2022-11-16T07:48:52.273Z,997.04
2022-11-16T07:49:52.294Z,997.04
2022-11-16T07:50:52.283Z,996.99
2022-11-16T07:51:52.393Z,997.06
2022-11-16T07:52:52.282Z,997.00
2022-11-16T07:53:52.271Z,996.99
2022-11-16T07:54:52.265Z,997.05
2022-11-16T07:55:52.255Z,997.04
2022-11-16T07:56:52.274Z,997.05
2022-11-16T07:57:53.618Z,997.06
2022-11-16T07:58:52.268Z,997.07
2022-11-16T07:59:52.277Z,997.05
2022-11-16T08:00:52.266Z,997.05
2022-11-16T08:01:52.370Z,997.07
2022-11-16T08:02:52.275Z,997.11
2022-11-16T08:03:52.250Z,997.16
2022-11-16T08:04:52.252Z,997.14
2022-11-16T08:05:52.241Z,997.15
2022-11-16T08:06:52.315Z,997.19
2022-11-16T08:07:52.348Z,997.15
2022-11-16T08:08:56.794Z,997.15
2022-11-16T08:09:52.373Z,997.16
2022-11-16T08:10:52.246Z,997.19
2022-11-16T08:11:52.230Z,997.17
2022-11-16T08:12:52.218Z,997.21
2022-11-16T08:13:52.274Z,997.22
2022-11-16T08:14:52.215Z,997.24
2022-11-16T08:15:52.213Z,997.25
2022-11-16T08:16:52.209Z,997.27
2022-11-16T08:17:52.229Z,997.29
2022-11-16T08:18:52.288Z,997.32
2022-11-16T08:19:52.218Z,997.36
2022-11-16T08:20:52.217Z,997.42
2022-11-16T08:21:52.215Z,997.46
2022-11-16T08:22:52.227Z,997.53
2022-11-16T08:23:56.909Z,997.52
2022-11-16T08:24:52.204Z,997.49
2022-11-16T08:25:52.186Z,997.56
2022-11-16T08:26:52.199Z,997.58
2022-11-16T08:27:52.203Z,997.59
2022-11-16T08:28:52.188Z,997.61
2022-11-16T08:29:52.217Z,997.61
2022-11-16T08:30:53.880Z,997.59
2022-11-16T08:31:52.193Z,997.61
2022-11-16T08:32:52.188Z,997.62
2022-11-16T08:33:52.192Z,997.62
2022-11-16T08:34:52.196Z,997.61
2022-11-16T08:35:52.183Z,997.61
2022-11-16T08:36:52.186Z,997.66
2022-11-16T08:37:52.174Z,997.61
2022-11-16T08:38:52.224Z,997.64
2022-11-16T08:39:52.322Z,997.67
2022-11-16T08:40:52.175Z,997.72
2022-11-16T08:41:52.154Z,997.77
2022-11-16T08:42:52.175Z,997.79
2022-11-16T08:43:52.151Z,997.79
2022-11-16T08:44:52.159Z,997.78
2022-11-16T08:45:52.165Z,997.81
2022-11-16T08:46:52.142Z,997.83
2022-11-16T08:48:03.108Z,997.81
2022-11-16T08:48:52.190Z,997.83
2022-11-16T08:49:52.133Z,997.87
2022-11-16T08:51:16.002Z,997.86
2022-11-16T08:51:52.138Z,997.82
2022-11-16T08:52:52.125Z,997.83
2022-11-16T08:53:52.124Z,997.83
2022-11-16T08:54:52.124Z,997.82
2022-11-16T08:55:52.256Z,997.86
2022-11-16T08:56:52.124Z,997.81
2022-11-16T08:57:52.141Z,997.88
2022-11-16T08:58:57.839Z,997.85
2022-11-16T08:59:52.108Z,997.86
2022-11-16T09:00:52.122Z,997.86
2022-11-16T09:01:52.144Z,997.82
2022-11-16T09:02:52.126Z,997.78
2022-11-16T09:03:52.112Z,997.83
2022-11-16T09:04:52.121Z,997.81
2022-11-16T09:05:52.100Z,997.84
2022-11-16T09:06:52.137Z,997.81
2022-11-16T09:07:52.108Z,997.80
2022-11-16T09:08:52.124Z,997.82
2022-11-16T09:09:52.087Z,997.80
2022-11-16T09:10:52.098Z,997.83
2022-11-16T09:11:52.202Z,997.85
2022-11-16T09:12:54.138Z,997.88
2022-11-16T09:13:54.133Z,997.89
2022-11-16T09:14:52.088Z,997.90
2022-11-16T09:15:52.069Z,997.88
2022-11-16T09:16:52.077Z,997.92
2022-11-16T09:17:52.078Z,997.91
2022-11-16T09:18:52.078Z,997.95
2022-11-16T09:19:52.060Z,997.90
2022-11-16T09:20:52.071Z,997.90
2022-11-16T09:21:52.057Z,997.90
2022-11-16T09:22:52.066Z,997.89
2022-11-16T09:23:52.052Z,997.88
2022-11-16T09:24:52.141Z,997.90
2022-11-16T09:25:52.071Z,997.84
2022-11-16T09:26:52.111Z,997.91
2022-11-16T09:27:52.197Z,997.90
2022-11-16T09:28:52.050Z,997.90
2022-11-16T09:29:52.127Z,997.88
2022-11-16T09:30:52.060Z,997.92
2022-11-16T09:31:52.056Z,997.91
2022-11-16T09:32:52.038Z,997.91
2022-11-16T09:33:52.033Z,997.93
2022-11-16T09:34:52.041Z,997.97
2022-11-16T09:35:52.032Z,997.97
2022-11-16T09:36:52.030Z,997.97
2022-11-16T09:37:52.029Z,997.97
2022-11-16T09:39:25.743Z,997.95
2022-11-16T09:39:52.020Z,997.96
2022-11-16T09:40:52.013Z,997.91
2022-11-16T09:41:52.011Z,997.92
2022-11-16T09:42:52.004Z,997.91
2022-11-16T09:43:52.116Z,997.91
2022-11-16T09:44:52.059Z,997.89
2022-11-16T09:45:52.003Z,997.87
2022-11-16T09:46:51.998Z,997.85
2022-11-16T09:47:52.004Z,997.90
2022-11-16T09:48:51.996Z,997.90
2022-11-16T09:49:51.999Z,997.91
2022-11-16T09:50:51.994Z,997.91
2022-11-16T09:51:51.998Z,997.92
2022-11-16T09:52:54.060Z,997.93
2022-11-16T09:53:51.980Z,997.94
2022-11-16T09:54:51.977Z,997.95
2022-11-16T09:55:51.981Z,997.93
2022-11-16T09:56:51.981Z,997.92
2022-11-16T09:57:51.973Z,997.92
2022-11-16T09:58:51.970Z,997.92
2022-11-16T09:59:51.988Z,997.92
2022-11-16T10:00:52.037Z,997.94
2022-11-16T10:01:51.969Z,997.93
2022-11-16T10:02:51.962Z,997.94
2022-11-16T10:03:51.969Z,997.92
2022-11-16T10:04:57.767Z,997.89
2022-11-16T10:05:51.950Z,997.87
2022-11-16T10:06:52.003Z,997.80
2022-11-16T10:07:51.979Z,997.81
2022-11-16T10:08:51.952Z,997.80
2022-11-16T10:09:51.940Z,997.83
2022-11-16T10:10:51.939Z,997.84
2022-11-16T10:11:51.944Z,997.89
2022-11-16T10:12:51.945Z,997.87
2022-11-16T10:13:51.941Z,997.84
2022-11-16T10:14:51.934Z,997.87
2022-11-16T10:15:52.050Z,997.79
2022-11-16T10:16:51.922Z,997.75
2022-11-16T10:17:51.933Z,997.73
2022-11-16T10:18:51.926Z,997.77
2022-11-16T10:19:51.921Z,997.74
2022-11-16T10:20:51.923Z,997.78
2022-11-16T10:21:51.922Z,997.73
2022-11-16T10:22:51.919Z,997.75
2022-11-16T10:23:51.911Z,997.74
2022-11-16T10:24:51.914Z,997.72
2022-11-16T10:25:52.005Z,997.70
2022-11-16T10:26:51.915Z,997.70
2022-11-16T10:27:51.910Z,997.70
2022-11-16T10:28:51.898Z,997.68
2022-11-16T10:29:51.895Z,997.67
2022-11-16T10:30:51.905Z,997.63
2022-11-16T10:31:51.914Z,997.63
2022-11-16T10:32:51.891Z,997.61
2022-11-16T10:33:51.890Z,997.63
2022-11-16T10:34:51.891Z,997.59
2022-11-16T10:35:51.889Z,997.64
2022-11-16T10:36:51.878Z,997.57
2022-11-16T10:37:51.886Z,997.57
2022-11-16T10:38:51.871Z,997.58
2022-11-16T10:39:51.890Z,997.54
2022-11-16T10:40:51.881Z,997.53
2022-11-16T10:41:51.877Z,997.48
2022-11-16T10:42:51.879Z,997.49
2022-11-16T10:43:51.858Z,997.52
2022-11-16T10:44:51.866Z,997.51
2022-11-16T10:45:51.863Z,997.50
2022-11-16T10:46:51.854Z,997.46
2022-11-16T10:47:51.972Z,997.43
2022-11-16T10:48:51.864Z,997.49
2022-11-16T10:49:51.865Z,997.46
2022-11-16T10:50:51.856Z,997.46
2022-11-16T10:51:51.849Z,997.42
2022-11-16T10:52:51.850Z,997.41
2022-11-16T10:53:51.843Z,997.40
2022-11-16T10:54:51.840Z,997.38
2022-11-16T10:55:51.832Z,997.38
2022-11-16T10:56:51.833Z,997.41
2022-11-16T10:57:51.859Z,997.44
2022-11-16T10:58:51.839Z,997.40
2022-11-16T10:59:51.829Z,997.41
2022-11-16T11:00:52.105Z,997.38
2022-11-16T11:01:51.828Z,997.39
2022-11-16T11:02:51.814Z,997.41
2022-11-16T11:03:51.965Z,997.39
2022-11-16T11:04:51.829Z,997.39
2022-11-16T11:05:51.821Z,997.38
2022-11-16T11:06:51.952Z,997.36
2022-11-16T11:07:56.787Z,997.34
2022-11-16T11:08:51.807Z,997.35
2022-11-16T11:09:51.803Z,997.32
2022-11-16T11:10:51.808Z,997.35
2022-11-16T11:11:51.808Z,997.33
2022-11-16T11:12:51.816Z,997.28
2022-11-16T11:13:51.784Z,997.22
2022-11-16T11:14:51.794Z,997.20
2022-11-16T11:15:51.782Z,997.15
2022-11-16T11:16:51.787Z,997.15
2022-11-16T11:17:51.777Z,997.16
2022-11-16T11:18:51.782Z,997.14
2022-11-16T11:19:51.891Z,997.13
2022-11-16T11:20:51.778Z,997.14
2022-11-16T11:21:51.772Z,997.16
2022-11-16T11:22:51.766Z,997.10
2022-11-16T11:23:51.770Z,997.10
2022-11-16T11:24:51.769Z,997.08
2022-11-16T11:25:51.762Z,997.06
2022-11-16T11:26:51.783Z,997.01
2022-11-16T11:27:51.765Z,997.07
2022-11-16T11:28:51.758Z,997.05
2022-11-16T11:29:51.847Z,997.07
2022-11-16T11:30:51.748Z,997.05
2022-11-16T11:31:51.750Z,997.04
2022-11-16T11:32:51.754Z,997.11
2022-11-16T11:33:51.747Z,997.10
2022-11-16T11:34:51.761Z,997.09
2022-11-16T11:35:51.871Z,997.10
2022-11-16T11:36:51.747Z,997.06
2022-11-16T11:37:51.737Z,997.04
2022-11-16T11:38:53.866Z,997.07
2022-11-16T11:39:51.729Z,997.04
2022-11-16T11:40:51.720Z,996.98
2022-11-16T11:41:51.723Z,996.95
2022-11-16T11:42:51.718Z,996.93
2022-11-16T11:43:51.714Z,996.87
2022-11-16T11:44:51.714Z,996.89
2022-11-16T11:45:51.718Z,996.87
2022-11-16T11:47:50.317Z,996.90
2022-11-16T11:47:59.829Z,996.88
2022-11-16T11:48:51.700Z,996.84
2022-11-16T11:49:51.701Z,996.83
2022-11-16T11:50:51.699Z,996.80
2022-11-16T11:51:51.810Z,996.75
2022-11-16T11:52:51.699Z,996.78
2022-11-16T11:53:51.691Z,996.76
2022-11-16T11:54:51.694Z,996.78
2022-11-16T11:55:51.687Z,996.68
2022-11-16T11:56:51.690Z,996.75
2022-11-16T11:57:51.692Z,996.73
2022-11-16T11:58:51.684Z,996.72
2022-11-16T11:59:51.709Z,996.63
2022-11-16T12:00:51.674Z,996.65
2022-11-16T12:01:51.670Z,996.62
2022-11-16T12:02:51.691Z,996.64
2022-11-16T12:03:51.675Z,996.62
2022-11-16T12:04:51.657Z,996.63
2022-11-16T12:05:51.704Z,996.60
2022-11-16T12:06:51.756Z,996.61
2022-11-16T12:07:51.773Z,996.63
2022-11-16T12:08:51.736Z,996.63
2022-11-16T12:09:51.657Z,996.64
2022-11-16T12:10:51.651Z,996.53
2022-11-16T12:11:51.648Z,996.52
2022-11-16T12:12:51.638Z,996.52
2022-11-16T12:13:51.649Z,996.48
2022-11-16T12:14:51.639Z,996.46
2022-11-16T12:15:51.637Z,996.41
2022-11-16T12:16:51.651Z,996.43
2022-11-16T12:17:51.633Z,996.41
2022-11-16T12:18:51.633Z,996.37
2022-11-16T12:19:51.619Z,996.39
2022-11-16T12:20:51.616Z,996.40
2022-11-16T12:21:51.617Z,996.38
2022-11-16T12:22:51.612Z,996.41
2022-11-16T12:23:51.624Z,996.35
2022-11-16T12:24:51.608Z,996.39
2022-11-16T12:25:51.617Z,996.39
2022-11-16T12:26:51.606Z,996.44
2022-11-16T12:27:51.600Z,996.41
2022-11-16T12:28:51.613Z,996.40